Arendtsville, Pennsylvania
Current Conditions -  °F | °C
As of 5:53 AM on Friday 19 Dec 2014 (Local Time) from KRYT Reporting Station
Overcast Overcast  
Wind Chill: 25°   Ceiling: 2400
Heat Index: 32°   Visibility: 10mi
Dew Point: 22°   Wind: 8mph
Humidity: 66%   Direction: 310°NW
Pressure: 30.06"   Gusts: NA
Location:  39.92°N, 77.3°W
Report Text: KRYT 191053Z AUTO 31007KT 10SM OVC024 00/M06 A3006 RMK AO2 SLP193 T00001056 $
Loading
Personal Weather Stations






























Interactive Weather Map New forecast layout! Learn more

10-Day Weather Forecast

Advertisements
Track Severe Weather on mobile